• Join FlightAware (Why Join?)
  • Login
  • US Flag 
08:01AM EST


 

Airport Tracker/Info


-or-


 

Live Flight TrackerFlight Track Log ✈ N319EE ✈ 01-Oct-2013 ✈ KPWM - KROC

Flight Track Log - Related Links

Times and Time Zones

All times are in EDT time to prevent confusion due to time zone crossing. See the N319EE flight status page for this flight to view local times or setup timezone preferences in your user account.

Time Position Orientation Groundspeed Altitude Reporting Facility
EDT Latitude Longitude Course Direction KTS MPH feet Rate Location/Type
07:13AM 43.6461 -70.3597 279° West 163 188 1,100  Level Boston Center
07:14AM 43.6542 -70.4306 279° West 184 212 2,800 1,740 Climbing Boston Center
07:15AM 43.6672 -70.4964 285° West 178 205 4,700 1,680 Climbing Boston Center
07:16AM 43.6811 -70.5631 286° West 180 207 6,300 1,680 Climbing Boston Center
07:17AM 43.6944 -70.6392 284° West 189 217 8,200 1,800 Climbing Boston Center
07:18AM 43.7075 -70.7111 284° West 193 222 10,000 1,680 Climbing Boston Center
07:19AM 43.7128 -70.7861 276° West 200 230 11,700 1,620 Climbing Boston Center
07:20AM 43.7061 -70.8617 263° West 199 229 13,400 1,380 Climbing Boston Center
07:21AM 43.7017 -70.9428 266° West 211 243 14,600 1,380 Climbing Boston Center
07:22AM 43.6953 -71.0314 264° West 215 247 16,300 1,500 Climbing Boston Center
07:23AM 43.6917 -71.1103 266° West 207 238 17,700 1,140 Climbing Boston Center
07:24AM 43.6875 -71.1792 265° West 209 241 18,600 960 Climbing Boston Center
07:25AM 43.6822 -71.2622 265° West 214 246 19,700 660 Climbing Boston Center
07:26AM 43.6767 -71.3522 265° West 230 265 20,000 120 Climbing Boston Center
07:27AM 43.6703 -71.4494 265° West 248 285 20,000  Level Boston Center
07:28AM 43.6631 -71.5589 265° West 261 300 20,000  Level Boston Center
07:29AM 43.6583 -71.6628 266° West 267 307 20,000  Level Boston Center
07:30AM 43.6525 -71.7636 265° West 266 306 20,000  Level Boston Center
07:31AM 43.6464 -71.8647 265° West 266 306 20,000  Level Boston Center
07:32AM 43.6383 -71.9653 264° West 264 304 20,000  Level Boston Center
07:33AM 43.6306 -72.0867 265° West 266 306 20,000  Level Boston Center
07:34AM 43.6247 -72.1875 265° West 264 304 20,000  Level Boston Center
07:35AM 43.6169 -72.2881 264° West 265 305 20,000  Level Boston Center
07:36AM 43.6103 -72.3872 265° West 261 300 20,000  Level Boston Center
07:37AM 43.6036 -72.4875 265° West 263 303 20,000  Level Boston Center
07:38AM 43.5958 -72.5878 264° West 264 304 20,000  Level Boston Center
07:39AM 43.5900 -72.6894 266° West 266 306 20,000  Level Boston Center
07:40AM 43.5817 -72.7889 263° West 263 303 20,000  Level Boston Center
07:41AM 43.5756 -72.8872 265° West 260 299 20,000  Level Boston Center
07:42AM 43.5675 -72.9853 264° West 259 298 20,000  Level Boston Center
07:43AM 43.5589 -73.0956 264° West 256 295 20,000  Level Boston Center
07:44AM 43.5517 -73.1936 264° West 256 295 20,000  Level Boston Center
07:45AM 43.5444 -73.2906 264° West 255 293 20,000  Level Boston Center
07:46AM 43.5364 -73.3867 263° West 253 291 20,000  Level Boston Center
07:47AM 43.5297 -73.4839 265° West 253 291 20,000  Level Boston Center
07:48AM 43.5214 -73.5797 263° West 253 291 20,000  Level Boston Center
07:49AM 43.5131 -73.6739 263° West 250 288 20,000  Level Boston Center
07:50AM 43.5050 -73.7703 263° West 252 290 20,000  Level Boston Center
07:51AM 43.4961 -73.8858 264° West 253 291 20,000  Level Boston Center
07:52AM 43.4878 -73.9819 263° West 253 291 20,000  Level Boston Center
07:54AM 43.4792 -74.0764 263° West 251 289 20,000  Level Boston Center
07:55AM 43.4722 -74.1742 264° West 250 288 20,000  Level Boston Center
07:56AM 43.4636 -74.2697 263° West 251 289 20,000  Level Boston Center
07:57AM 43.4547 -74.3636 263° West 249 287 20,000  Level Boston Center
07:58AM 43.4472 -74.4581 264° West 249 287 20,000  Level Boston Center
07:59AM 43.4386 -74.5519 263° West 249 287 20,000  Level Boston Center
08:00AM 43.4303 -74.6447 263° West 246 283 20,000  Level Boston Center
08:01AM 43.4222 -74.7389 263° West 248 285 20,000  Level Boston Center
08:02AM 43.4136 -74.8314 263° West 246 283 20,000  Level Boston Center
08:03AM 43.4050 -74.9242 263° West 246 283 20,000  Level Boston Center
08:04AM 43.3967 -75.0167 263° West 244 281 20,000  Level Boston Center
08:05AM 43.3886 -75.1083 263° West 244 281 20,000  Level Boston Center
08:06AM 43.3792 -75.2178 263° West 244 281 20,000  Level Boston Center
08:07AM 43.3714 -75.3164 264° West 249 287 20,000  Level Boston Center
08:08AM 43.3614 -75.4003 261° West 247 284 20,000  Level Boston Center
08:09AM 43.3525 -75.4919 262° West 244 281 20,000  Level Boston Center
08:10AM 43.3436 -75.5842 262° West 243 280 20,000  Level Boston Center
08:11AM 43.3344 -75.6772 262° West 246 283 20,000  Level Boston Center
08:12AM 43.3256 -75.7692 262° West 245 282 20,000  Level Boston Center
08:13AM 43.3164 -75.8603 262° West 242 278 20,000  Level Boston Center
08:14AM 43.3058 -75.9703 263° West 243 280 20,000 -540 Level Boston Center
08:15AM 43.2958 -76.0683 262° West 258 297 19,000 -1,020 Descending Boston Center
08:16AM 43.2850 -76.1736 262° West 276 318 18,000 -540 Descending Boston Center
08:17AM 43.2750 -76.2744 262° West 270 311 18,000  Level Boston Center
08:18AM 43.2614 -76.3881 261° West 257 296 18,000  Level Cleveland Center
08:19AM 43.2522 -76.4808 262° West 248 285 18,000 -300 Level Cleveland Center
08:20AM 43.2417 -76.5739 261° West 248 285 17,400 -960 Descending Cleveland Center
08:21AM 43.2303 -76.6678 261° West 273 314 16,300 -1,380 Descending Cleveland Center
08:21AM 43.2300 -76.6778 268° West 267 307 16,000 -1,800 Descending Cleveland Center
08:22AM 43.2186 -76.7864 262° West 301 346 14,300 -1,800 Descending Cleveland Center
08:22AM 43.2169 -76.7889 228° Southwest 288 331 14,200 -1,380 Descending Cleveland Center
08:23AM 43.2061 -76.8961 262° West 294 338 12,900 -1,500 Descending Cleveland Center
08:23AM 43.2050 -76.9211 267° West 293 337 12,700 -1,320 Descending Cleveland Center
08:24AM 43.1944 -77.0119 261° West 284 327 11,600 -1,260 Descending Cleveland Center
08:24AM 43.1922 -77.0278 259° West 285 328 11,400 -1,320 Descending Cleveland Center
08:25AM 43.1825 -77.1161 261° West 278 320 10,300 -1,260 Descending Cleveland Center
08:25AM 43.1831 -77.1331 273° West 280 322 10,100 -1,440 Descending Cleveland Center
08:26AM 43.1786 -77.2328 267° West 267 307 8,500 -1,620 Descending Cleveland Center
08:27AM 43.1706 -77.3247 263° West 264 304 7,100 -1,560 Descending Cleveland Center
08:27AM 43.1719 -77.3322 284° West 265 305 6,900 -1,320 Descending Cleveland Center
08:28AM 43.1669 -77.4106 265° West 221 254 5,800 -1,260 Descending Cleveland Center
08:28AM 43.1681 -77.4203 279° West 248 285 5,600 -2,100 Descending Cleveland Center
08:29AM 43.1586 -77.5144 262° West 221 254 3,200 -1,980 Descending Cleveland Center
08:30AM 43.1500 -77.5628 256° West 208 239 2,300 -1,200 Descending Cleveland Center
08:31AM 43.1328 -77.6247 249° West 136 157 1,200 -1,140 Descending Cleveland Center